Terminal Aerodrome Forecast
Issued by NWS

Home | Current Version | Previous Version | Text Only | Print | Product List | Glossary On
Versions: 1 2 3 4 5 6 7 8 9 10 11 12 13 14 15 16 17
000
FTUS46 KSEW 251100
TAFPAE
TAF
KPAE 251138Z 2512/2612 16006KT P6SM OVC008
     FM251800 16004KT P6SM BKN011 BKN200
     FM252000 VRB03KT P6SM BKN200=

USA.gov is the U.S. government's official web portal to all federal, state and local government web resources and services.